WAGO2: Chouteau Lock And Dam (L&D 17)

Data processed at Fri Jan 05 2018 23:33


All information presented herein is the property of the government of the United States of America and may be revised or deleted at any time without prior notice.
Dissemination of this information without the expressed written consent of the Public Affairs Office, Tulsa District U.S. Army Corps of Engineers is strictly prohibited.
These data are gathered electronically and, as presented, have not undergone any form of quality control. These data are not guaranteed to be valid or correct.
Go to home page.
Go to station list.

Upstream stations:

Downstream station:
Previous Day
Next Day
Current Day
    
SHEF ID:       WAGO2     Chouteau Lock And Dam (L&D 17)
STATION TYPE:  NAVIGATION LOCK
Normal Pool:  Bottom =   511.50, Top =   511.50

               PRECIP ELEVATION   STORAGE   TW-ELEV    INFLOW   RELEASE  AIR-TEMP  WIND-DIRWIND-SPEED REL-HUMID SOLAR-RAD   VOLTAGE  BAT-LOAD
                   in        ft     ac-ft        ft       cfs       cfs         F       deg       mph         %      W/m2      volt      volt
              Ccp-Rev   Ccp-Rev   Ccp-Rev   Ccp-Rev  Regi-Rev  Regi-Rev   Ccp-Rev   Ccp-Rev   Ccp-Rev   Ccp-Rev   Ccp-Rev   Ccp-Rev   Ccp-Rev
(US/Central)
01/03 00:00      0.00    511.41     23501    490.01        55         0     16.39    268.20      1.20     59.58      0.00     13.56     13.09
01/03 01:00      0.00    511.41     23501    489.81        55         0     16.12    193.90      0.50     60.95      0.00     13.55     13.09
01/03 02:00      0.00    511.41     23501    490.00        55         0     15.44    159.80      1.60     65.03      0.00     13.57     13.09
01/03 03:00      0.00    511.40     23478    490.00        55         0     14.74    152.60      2.30     66.55      0.00     13.56     13.09
01/03 04:00      0.00    511.39     23455    490.02        55         0     13.91    160.00      1.60     69.32      0.00     13.57     13.09
01/03 05:00      0.00    511.42     23523    489.98        55         0     13.64    149.50      3.50     70.48      0.00     13.56     13.09
01/03 06:00      0.00    511.43     23546    489.91        37         0     13.42    152.00      2.80     70.36      0.00     13.51     13.09
01/03 07:00      0.00    511.42     23523    490.03        18         0     13.19    173.80      1.60     71.90      0.00     13.52     13.09
01/03 08:00      0.00    511.40     23478    490.32        55         0     12.63    158.80      1.20     74.62      1.20     13.59     13.09
01/03 09:00      0.00    511.42     23523    490.47        55         0     15.57    293.30      1.20     68.11    102.10     13.55     13.08
01/03 10:00      0.00    511.43     23546    490.11        55         0     19.33    325.80      4.30     61.71    272.20     13.57     13.09
01/03 11:00      0.00    511.43     23546    490.07        82         0     23.50    348.40      8.80     55.68    419.60     13.58     13.09
01/03 12:00      0.00    511.43     23546    490.01       110         0     27.39    353.80     10.30     52.77    521.40     13.57     13.10
01/03 13:00      0.00    511.46     23614    490.03       110         0     30.09    348.40     10.50     50.90    562.60     13.51     13.09
01/03 14:00      0.00    511.44     23569    489.97       110         0     31.62    343.90      9.00     49.12    542.50     13.59     13.13
01/03 15:00      0.00    511.45     23591    489.97       110         0     33.08    346.10      9.00     46.25    458.00     13.57      ----
01/03 16:00      0.00    511.46     23614    489.85        82         0     34.20    342.30      6.50     46.21    317.60     13.55     13.10
01/03 17:00      0.00    511.45     23591    489.96       110         0     34.61    343.00      6.30     44.74    138.50     13.52     13.09
01/03 18:00      0.00    511.45     23591    490.31       110         0     32.20    343.10      2.40     49.05      1.00     13.56     13.09
01/03 19:00      0.00    511.46     23614    490.36       110         0     27.52     53.20      0.10     64.46      0.00     13.55     13.11
01/03 20:00      0.00    511.47     23637    490.14       110         0     24.49      4.60      0.00     73.74      0.00     13.55     13.09
01/03 21:00      0.00    511.47     23637    490.13       165         0     22.33    158.10      0.00     79.04      0.00     13.50     13.09
01/03 22:00      0.00    511.47     23637    490.06       385         0     20.53    141.40      0.00     87.82      0.00     13.59     13.09
01/03 23:00      0.00    511.48     23660    489.99       348         0     19.44     51.50      0.00     92.80      0.00     13.55     13.09